sensor_id;sensor_type;location;lat;lon;timestamp;P1;durP1;ratioP1;P2;durP2;ratioP2
75488;SDS011;64069;46.396;48.102;2023-08-20T00:00:46;5.45;;;1.95;;
75488;SDS011;64069;46.396;48.102;2023-08-20T00:03:19;4.95;;;1.95;;
75488;SDS011;64069;46.396;48.102;2023-08-20T00:05:45;4.85;;;1.55;;
75488;SDS011;64069;46.396;48.102;2023-08-20T00:08:18;6.32;;;1.98;;
75488;SDS011;64069;46.396;48.102;2023-08-20T00:10:50;11.85;;;2.17;;
75488;SDS011;64069;46.396;48.102;2023-08-20T00:13:16;4.78;;;1.80;;
75488;SDS011;64069;46.396;48.102;2023-08-20T00:15:48;5.15;;;1.55;;
75488;SDS011;64069;46.396;48.102;2023-08-20T00:18:21;6.15;;;1.95;;
75488;SDS011;64069;46.396;48.102;2023-08-20T00:20:54;4.65;;;1.80;;
75488;SDS011;64069;46.396;48.102;2023-08-20T00:23:21;7.07;;;1.60;;
75488;SDS011;64069;46.396;48.102;2023-08-20T00:25:54;5.55;;;1.80;;
75488;SDS011;64069;46.396;48.102;2023-08-20T00:28:20;4.70;;;1.42;;
75488;SDS011;64069;46.396;48.102;2023-08-20T00:30:52;6.80;;;1.65;;
75488;SDS011;64069;46.396;48.102;2023-08-20T00:33:26;4.43;;;1.67;;
75488;SDS011;64069;46.396;48.102;2023-08-20T00:35:53;3.05;;;1.45;;
75488;SDS011;64069;46.396;48.102;2023-08-20T00:38:26;4.50;;;1.33;;
75488;SDS011;64069;46.396;48.102;2023-08-20T00:41:00;6.88;;;1.70;;
75488;SDS011;64069;46.396;48.102;2023-08-20T00:43:26;3.90;;;1.60;;
75488;SDS011;64069;46.396;48.102;2023-08-20T00:45:59;5.32;;;1.50;;
75488;SDS011;64069;46.396;48.102;2023-08-20T00:48:32;4.50;;;1.83;;
75488;SDS011;64069;46.396;48.102;2023-08-20T00:50:58;4.78;;;1.50;;
75488;SDS011;64069;46.396;48.102;2023-08-20T00:53:37;4.30;;;2.13;;
75488;SDS011;64069;46.396;48.102;2023-08-20T00:56:10;10.50;;;1.75;;
75488;SDS011;64069;46.396;48.102;2023-08-20T00:58:37;4.55;;;1.73;;
75488;SDS011;64069;46.396;48.102;2023-08-20T01:01:09;7.18;;;1.35;;
75488;SDS011;64069;46.396;48.102;2023-08-20T01:03:42;5.00;;;1.30;;
75488;SDS011;64069;46.396;48.102;2023-08-20T01:06:19;5.65;;;1.42;;
75488;SDS011;64069;46.396;48.102;2023-08-20T01:09:05;4.18;;;2.03;;
75488;SDS011;64069;46.396;48.102;2023-08-20T01:11:47;4.25;;;1.48;;
75488;SDS011;64069;46.396;48.102;2023-08-20T01:14:28;5.22;;;1.60;;
75488;SDS011;64069;46.396;48.102;2023-08-20T01:16:54;6.60;;;1.40;;
75488;SDS011;64069;46.396;48.102;2023-08-20T01:19:26;5.60;;;1.35;;
75488;SDS011;64069;46.396;48.102;2023-08-20T01:27:47;2.00;;;1.33;;
75488;SDS011;64069;46.396;48.102;2023-08-20T01:30:32;4.25;;;1.25;;
75488;SDS011;64069;46.396;48.102;2023-08-20T01:33:05;2.92;;;1.30;;
75488;SDS011;64069;46.396;48.102;2023-08-20T01:35:32;9.52;;;1.90;;
75488;SDS011;64069;46.396;48.102;2023-08-20T01:40:46;5.50;;;1.40;;
75488;SDS011;64069;46.396;48.102;2023-08-20T01:43:14;7.18;;;1.60;;
75488;SDS011;64069;46.396;48.102;2023-08-20T01:45:46;3.35;;;1.50;;
75488;SDS011;64069;46.396;48.102;2023-08-20T01:48:19;9.60;;;1.58;;
75488;SDS011;64069;46.396;48.102;2023-08-20T01:50:44;11.75;;;2.17;;
75488;SDS011;64069;46.396;48.102;2023-08-20T01:53:17;4.60;;;1.58;;
75488;SDS011;64069;46.396;48.102;2023-08-20T01:55:56;4.50;;;1.38;;
75488;SDS011;64069;46.396;48.102;2023-08-20T01:58:28;9.75;;;1.73;;
75488;SDS011;64069;46.396;48.102;2023-08-20T02:01:03;4.38;;;1.75;;
75488;SDS011;64069;46.396;48.102;2023-08-20T02:03:30;4.47;;;1.67;;
75488;SDS011;64069;46.396;48.102;2023-08-20T02:06:02;6.63;;;1.88;;
75488;SDS011;64069;46.396;48.102;2023-08-20T02:08:36;8.10;;;1.90;;
75488;SDS011;64069;46.396;48.102;2023-08-20T02:11:02;7.78;;;1.85;;
75488;SDS011;64069;46.396;48.102;2023-08-20T02:13:35;5.65;;;1.95;;
75488;SDS011;64069;46.396;48.102;2023-08-20T02:16:07;6.25;;;2.15;;
75488;SDS011;64069;46.396;48.102;2023-08-20T02:18:32;11.90;;;2.40;;
75488;SDS011;64069;46.396;48.102;2023-08-20T02:21:04;13.25;;;3.00;;
75488;SDS011;64069;46.396;48.102;2023-08-20T02:23:37;7.72;;;3.25;;
75488;SDS011;64069;46.396;48.102;2023-08-20T02:26:05;6.45;;;3.17;;
75488;SDS011;64069;46.396;48.102;2023-08-20T02:28:37;10.05;;;3.40;;
75488;SDS011;64069;46.396;48.102;2023-08-20T02:31:04;10.20;;;4.00;;
75488;SDS011;64069;46.396;48.102;2023-08-20T02:33:37;7.60;;;3.22;;
75488;SDS011;64069;46.396;48.102;2023-08-20T02:36:12;12.52;;;2.85;;
75488;SDS011;64069;46.396;48.102;2023-08-20T02:38:44;6.47;;;2.10;;
75488;SDS011;64069;46.396;48.102;2023-08-20T02:41:18;8.30;;;2.35;;
75488;SDS011;64069;46.396;48.102;2023-08-20T02:43:44;7.30;;;2.05;;
75488;SDS011;64069;46.396;48.102;2023-08-20T02:46:16;5.15;;;1.90;;
75488;SDS011;64069;46.396;48.102;2023-08-20T02:48:49;6.15;;;1.80;;
75488;SDS011;64069;46.396;48.102;2023-08-20T02:51:21;10.50;;;2.25;;
75488;SDS011;64069;46.396;48.102;2023-08-20T02:54:07;7.85;;;1.70;;
75488;SDS011;64069;46.396;48.102;2023-08-20T02:56:41;8.70;;;1.83;;
75488;SDS011;64069;46.396;48.102;2023-08-20T02:59:07;11.60;;;2.25;;
75488;SDS011;64069;46.396;48.102;2023-08-20T03:01:39;7.68;;;1.98;;
75488;SDS011;64069;46.396;48.102;2023-08-20T03:04:12;5.75;;;2.13;;
75488;SDS011;64069;46.396;48.102;2023-08-20T03:06:37;10.00;;;2.10;;
75488;SDS011;64069;46.396;48.102;2023-08-20T03:09:09;6.40;;;2.00;;
75488;SDS011;64069;46.396;48.102;2023-08-20T03:11:43;6.35;;;1.88;;
75488;SDS011;64069;46.396;48.102;2023-08-20T03:14:08;8.93;;;1.98;;
75488;SDS011;64069;46.396;48.102;2023-08-20T03:16:40;7.03;;;2.10;;
75488;SDS011;64069;46.396;48.102;2023-08-20T03:19:14;6.00;;;1.80;;
75488;SDS011;64069;46.396;48.102;2023-08-20T03:21:40;5.50;;;1.73;;
75488;SDS011;64069;46.396;48.102;2023-08-20T03:24:12;9.38;;;1.80;;
75488;SDS011;64069;46.396;48.102;2023-08-20T03:26:45;4.00;;;2.00;;
75488;SDS011;64069;46.396;48.102;2023-08-20T03:29:13;6.13;;;2.03;;
75488;SDS011;64069;46.396;48.102;2023-08-20T03:31:45;4.80;;;1.73;;
75488;SDS011;64069;46.396;48.102;2023-08-20T03:34:19;4.20;;;1.70;;
75488;SDS011;64069;46.396;48.102;2023-08-20T03:36:52;4.25;;;1.80;;
75488;SDS011;64069;46.396;48.102;2023-08-20T03:39:18;4.43;;;1.90;;
75488;SDS011;64069;46.396;48.102;2023-08-20T03:41:52;5.63;;;1.90;;
75488;SDS011;64069;46.396;48.102;2023-08-20T03:44:18;13.80;;;2.15;;
75488;SDS011;64069;46.396;48.102;2023-08-20T03:46:50;4.32;;;2.10;;
75488;SDS011;64069;46.396;48.102;2023-08-20T03:49:23;9.95;;;2.30;;
75488;SDS011;64069;46.396;48.102;2023-08-20T03:51:56;8.80;;;2.08;;
75488;SDS011;64069;46.396;48.102;2023-08-20T03:54:41;5.57;;;2.00;;
75488;SDS011;64069;46.396;48.102;2023-08-20T03:57:14;7.43;;;2.15;;
75488;SDS011;64069;46.396;48.102;2023-08-20T03:59:40;4.95;;;2.25;;
75488;SDS011;64069;46.396;48.102;2023-08-20T04:02:13;4.57;;;2.42;;
75488;SDS011;64069;46.396;48.102;2023-08-20T04:04:47;4.25;;;2.00;;
75488;SDS011;64069;46.396;48.102;2023-08-20T04:07:12;5.30;;;2.67;;
75488;SDS011;64069;46.396;48.102;2023-08-20T04:09:44;6.07;;;2.53;;
75488;SDS011;64069;46.396;48.102;2023-08-20T04:12:17;4.57;;;2.30;;
75488;SDS011;64069;46.396;48.102;2023-08-20T04:14:42;9.85;;;2.53;;
75488;SDS011;64069;46.396;48.102;2023-08-20T04:17:14;7.50;;;2.30;;
75488;SDS011;64069;46.396;48.102;2023-08-20T04:19:47;5.47;;;2.38;;
75488;SDS011;64069;46.396;48.102;2023-08-20T04:22:12;8.40;;;2.35;;
75488;SDS011;64069;46.396;48.102;2023-08-20T04:24:44;4.57;;;2.25;;
75488;SDS011;64069;46.396;48.102;2023-08-20T04:27:17;13.73;;;2.85;;
75488;SDS011;64069;46.396;48.102;2023-08-20T04:29:43;6.65;;;2.50;;
75488;SDS011;64069;46.396;48.102;2023-08-20T04:32:16;6.55;;;2.30;;
75488;SDS011;64069;46.396;48.102;2023-08-20T04:34:49;15.18;;;3.33;;
75488;SDS011;64069;46.396;48.102;2023-08-20T04:37:24;4.28;;;2.30;;
75488;SDS011;64069;46.396;48.102;2023-08-20T04:39:51;6.57;;;3.00;;
75488;SDS011;64069;46.396;48.102;2023-08-20T04:42:24;9.48;;;2.72;;
75488;SDS011;64069;46.396;48.102;2023-08-20T04:44:51;4.95;;;2.30;;
75488;SDS011;64069;46.396;48.102;2023-08-20T04:47:25;10.15;;;2.70;;
75488;SDS011;64069;46.396;48.102;2023-08-20T04:49:57;7.85;;;2.60;;
75488;SDS011;64069;46.396;48.102;2023-08-20T04:52:23;7.53;;;3.00;;
75488;SDS011;64069;46.396;48.102;2023-08-20T04:54:56;7.07;;;2.85;;
75488;SDS011;64069;46.396;48.102;2023-08-20T04:57:22;7.15;;;2.63;;
75488;SDS011;64069;46.396;48.102;2023-08-20T04:59:56;9.48;;;3.10;;
75488;SDS011;64069;46.396;48.102;2023-08-20T05:03:04;6.00;;;2.90;;
75488;SDS011;64069;46.396;48.102;2023-08-20T05:05:37;5.28;;;2.85;;
75488;SDS011;64069;46.396;48.102;2023-08-20T05:08:24;9.48;;;3.92;;
75488;SDS011;64069;46.396;48.102;2023-08-20T05:10:57;23.40;;;4.22;;
75488;SDS011;64069;46.396;48.102;2023-08-20T05:13:23;7.22;;;3.40;;
75488;SDS011;64069;46.396;48.102;2023-08-20T05:15:56;8.20;;;3.55;;
75488;SDS011;64069;46.396;48.102;2023-08-20T05:18:28;8.43;;;3.65;;
75488;SDS011;64069;46.396;48.102;2023-08-20T05:20:54;7.72;;;3.38;;
75488;SDS011;64069;46.396;48.102;2023-08-20T05:23:28;8.00;;;3.45;;
75488;SDS011;64069;46.396;48.102;2023-08-20T05:25:53;8.02;;;3.55;;
75488;SDS011;64069;46.396;48.102;2023-08-20T05:28:26;11.10;;;4.65;;
75488;SDS011;64069;46.396;48.102;2023-08-20T05:30:59;9.30;;;4.07;;
75488;SDS011;64069;46.396;48.102;2023-08-20T05:33:25;10.25;;;3.55;;
75488;SDS011;64069;46.396;48.102;2023-08-20T05:35:59;10.75;;;3.58;;
75488;SDS011;64069;46.396;48.102;2023-08-20T05:38:32;8.43;;;3.80;;
75488;SDS011;64069;46.396;48.102;2023-08-20T05:40:58;6.50;;;3.03;;
75488;SDS011;64069;46.396;48.102;2023-08-20T05:43:30;7.00;;;3.53;;
75488;SDS011;64069;46.396;48.102;2023-08-20T05:46:03;4.72;;;3.20;;
75488;SDS011;64069;46.396;48.102;2023-08-20T05:48:29;5.50;;;3.40;;
75488;SDS011;64069;46.396;48.102;2023-08-20T05:51:02;5.38;;;3.50;;
75488;SDS011;64069;46.396;48.102;2023-08-20T05:53:38;5.90;;;3.13;;
75488;SDS011;64069;46.396;48.102;2023-08-20T05:56:11;10.18;;;3.58;;
75488;SDS011;64069;46.396;48.102;2023-08-20T05:58:44;9.00;;;3.25;;
75488;SDS011;64069;46.396;48.102;2023-08-20T06:01:10;8.13;;;3.40;;
75488;SDS011;64069;46.396;48.102;2023-08-20T06:03:43;9.68;;;3.28;;
75488;SDS011;64069;46.396;48.102;2023-08-20T06:06:15;9.95;;;3.80;;
75488;SDS011;64069;46.396;48.102;2023-08-20T06:09:00;7.13;;;3.58;;
75488;SDS011;64069;46.396;48.102;2023-08-20T06:11:33;8.20;;;3.45;;
75488;SDS011;64069;46.396;48.102;2023-08-20T06:13:58;7.13;;;3.55;;
75488;SDS011;64069;46.396;48.102;2023-08-20T06:16:31;10.02;;;3.25;;
75488;SDS011;64069;46.396;48.102;2023-08-20T06:19:03;5.53;;;3.22;;
75488;SDS011;64069;46.396;48.102;2023-08-20T06:21:29;8.75;;;3.38;;
75488;SDS011;64069;46.396;48.102;2023-08-20T06:24:01;5.40;;;3.17;;
75488;SDS011;64069;46.396;48.102;2023-08-20T06:26:33;11.75;;;3.40;;
75488;SDS011;64069;46.396;48.102;2023-08-20T06:28:58;7.38;;;3.40;;
75488;SDS011;64069;46.396;48.102;2023-08-20T06:31:31;6.55;;;3.60;;
75488;SDS011;64069;46.396;48.102;2023-08-20T06:34:03;5.75;;;3.75;;
75488;SDS011;64069;46.396;48.102;2023-08-20T06:36:29;11.90;;;4.25;;
75488;SDS011;64069;46.396;48.102;2023-08-20T06:39:02;12.60;;;4.50;;
75488;SDS011;64069;46.396;48.102;2023-08-20T06:41:35;9.80;;;3.65;;
75488;SDS011;64069;46.396;48.102;2023-08-20T06:44:18;11.00;;;3.85;;
75488;SDS011;64069;46.396;48.102;2023-08-20T06:46:51;22.48;;;4.22;;
75488;SDS011;64069;46.396;48.102;2023-08-20T06:49:23;13.45;;;3.70;;
75488;SDS011;64069;46.396;48.102;2023-08-20T06:51:49;8.23;;;3.42;;
75488;SDS011;64069;46.396;48.102;2023-08-20T06:54:21;8.35;;;3.70;;
75488;SDS011;64069;46.396;48.102;2023-08-20T06:57:01;14.53;;;4.40;;
75488;SDS011;64069;46.396;48.102;2023-08-20T06:59:27;12.88;;;3.70;;
75488;SDS011;64069;46.396;48.102;2023-08-20T07:02:00;6.68;;;3.15;;
75488;SDS011;64069;46.396;48.102;2023-08-20T07:04:32;7.95;;;3.50;;
75488;SDS011;64069;46.396;48.102;2023-08-20T07:07:04;7.38;;;2.85;;
75488;SDS011;64069;46.396;48.102;2023-08-20T07:09:37;7.00;;;3.53;;
75488;SDS011;64069;46.396;48.102;2023-08-20T07:12:10;12.25;;;3.55;;
75488;SDS011;64069;46.396;48.102;2023-08-20T07:14:36;16.98;;;3.50;;
75488;SDS011;64069;46.396;48.102;2023-08-20T07:17:08;9.55;;;3.10;;
75488;SDS011;64069;46.396;48.102;2023-08-20T07:19:40;5.65;;;2.85;;
75488;SDS011;64069;46.396;48.102;2023-08-20T07:22:06;7.15;;;2.90;;
75488;SDS011;64069;46.396;48.102;2023-08-20T07:24:38;5.55;;;3.05;;
75488;SDS011;64069;46.396;48.102;2023-08-20T07:27:10;8.20;;;2.80;;
75488;SDS011;64069;46.396;48.102;2023-08-20T07:29:37;6.22;;;2.90;;
75488;SDS011;64069;46.396;48.102;2023-08-20T07:32:10;5.75;;;2.90;;
75488;SDS011;64069;46.396;48.102;2023-08-20T07:34:44;8.38;;;2.92;;
75488;SDS011;64069;46.396;48.102;2023-08-20T07:37:10;6.88;;;3.17;;
75488;SDS011;64069;46.396;48.102;2023-08-20T07:39:42;5.55;;;2.70;;
75488;SDS011;64069;46.396;48.102;2023-08-20T07:42:14;5.35;;;2.63;;
75488;SDS011;64069;46.396;48.102;2023-08-20T07:44:47;5.72;;;2.70;;
75488;SDS011;64069;46.396;48.102;2023-08-20T07:47:20;6.30;;;3.00;;
75488;SDS011;64069;46.396;48.102;2023-08-20T07:49:46;6.45;;;3.30;;
75488;SDS011;64069;46.396;48.102;2023-08-20T07:52:18;7.38;;;3.25;;
75488;SDS011;64069;46.396;48.102;2023-08-20T07:54:50;4.97;;;3.20;;
75488;SDS011;64069;46.396;48.102;2023-08-20T07:57:16;6.85;;;3.40;;
75488;SDS011;64069;46.396;48.102;2023-08-20T07:59:48;10.80;;;3.53;;
75488;SDS011;64069;46.396;48.102;2023-08-20T08:02:21;9.60;;;2.88;;
75488;SDS011;64069;46.396;48.102;2023-08-20T08:04:47;7.90;;;3.58;;
75488;SDS011;64069;46.396;48.102;2023-08-20T08:07:19;6.03;;;3.13;;
75488;SDS011;64069;46.396;48.102;2023-08-20T08:09:59;6.05;;;3.30;;
75488;SDS011;64069;46.396;48.102;2023-08-20T08:12:25;8.43;;;3.20;;
75488;SDS011;64069;46.396;48.102;2023-08-20T08:14:58;4.57;;;2.90;;
75488;SDS011;64069;46.396;48.102;2023-08-20T08:17:31;9.75;;;3.15;;
75488;SDS011;64069;46.396;48.102;2023-08-20T08:19:57;6.60;;;3.10;;
75488;SDS011;64069;46.396;48.102;2023-08-20T08:22:30;6.03;;;3.22;;
75488;SDS011;64069;46.396;48.102;2023-08-20T08:25:02;8.90;;;3.00;;
75488;SDS011;64069;46.396;48.102;2023-08-20T08:27:28;9.43;;;3.30;;
75488;SDS011;64069;46.396;48.102;2023-08-20T08:30:01;6.78;;;3.45;;
75488;SDS011;64069;46.396;48.102;2023-08-20T08:32:34;8.20;;;3.50;;
75488;SDS011;64069;46.396;48.102;2023-08-20T08:35:00;5.68;;;3.20;;
75488;SDS011;64069;46.396;48.102;2023-08-20T08:37:33;5.93;;;2.85;;
75488;SDS011;64069;46.396;48.102;2023-08-20T08:40:06;7.60;;;3.10;;
75488;SDS011;64069;46.396;48.102;2023-08-20T08:42:33;6.95;;;3.72;;
75488;SDS011;64069;46.396;48.102;2023-08-20T08:45:06;7.43;;;3.55;;
75488;SDS011;64069;46.396;48.102;2023-08-20T08:47:39;4.70;;;3.22;;
75488;SDS011;64069;46.396;48.102;2023-08-20T08:50:05;6.85;;;3.55;;
75488;SDS011;64069;46.396;48.102;2023-08-20T08:52:38;8.70;;;3.30;;
75488;SDS011;64069;46.396;48.102;2023-08-20T08:55:12;7.93;;;3.80;;
75488;SDS011;64069;46.396;48.102;2023-08-20T08:57:38;5.88;;;3.28;;
75488;SDS011;64069;46.396;48.102;2023-08-20T09:00:11;8.45;;;3.85;;
75488;SDS011;64069;46.396;48.102;2023-08-20T09:02:45;5.93;;;3.78;;
75488;SDS011;64069;46.396;48.102;2023-08-20T09:05:13;5.22;;;3.70;;
75488;SDS011;64069;46.396;48.102;2023-08-20T09:07:57;7.72;;;3.40;;
75488;SDS011;64069;46.396;48.102;2023-08-20T09:10:30;10.77;;;3.50;;
75488;SDS011;64069;46.396;48.102;2023-08-20T09:13:04;7.03;;;3.67;;
75488;SDS011;64069;46.396;48.102;2023-08-20T09:15:31;7.07;;;3.40;;
75488;SDS011;64069;46.396;48.102;2023-08-20T09:18:08;5.97;;;3.28;;
75488;SDS011;64069;46.396;48.102;2023-08-20T09:20:42;5.70;;;3.67;;
75488;SDS011;64069;46.396;48.102;2023-08-20T09:23:15;6.07;;;3.55;;
75488;SDS011;64069;46.396;48.102;2023-08-20T09:25:41;5.10;;;3.47;;
75488;SDS011;64069;46.396;48.102;2023-08-20T09:28:15;8.32;;;3.90;;
75488;SDS011;64069;46.396;48.102;2023-08-20T09:30:59;8.68;;;3.63;;
75488;SDS011;64069;46.396;48.102;2023-08-20T09:33:35;13.30;;;3.78;;
75488;SDS011;64069;46.396;48.102;2023-08-20T09:36:08;13.25;;;4.18;;
75488;SDS011;64069;46.396;48.102;2023-08-20T09:38:42;7.82;;;3.63;;
75488;SDS011;64069;46.396;48.102;2023-08-20T09:41:08;5.75;;;3.05;;
75488;SDS011;64069;46.396;48.102;2023-08-20T09:43:41;9.52;;;3.60;;
75488;SDS011;64069;46.396;48.102;2023-08-20T09:46:15;7.85;;;3.75;;
75488;SDS011;64069;46.396;48.102;2023-08-20T09:48:49;7.38;;;3.47;;
75488;SDS011;64069;46.396;48.102;2023-08-20T09:51:24;5.88;;;3.58;;
75488;SDS011;64069;46.396;48.102;2023-08-20T09:54:19;7.80;;;3.35;;
75488;SDS011;64069;46.396;48.102;2023-08-20T09:56:58;5.00;;;3.05;;
75488;SDS011;64069;46.396;48.102;2023-08-20T09:59:34;6.07;;;3.10;;
75488;SDS011;64069;46.396;48.102;2023-08-20T10:02:01;6.22;;;3.17;;
75488;SDS011;64069;46.396;48.102;2023-08-20T10:04:34;6.75;;;3.30;;
75488;SDS011;64069;46.396;48.102;2023-08-20T10:07:07;4.35;;;3.20;;
75488;SDS011;64069;46.396;48.102;2023-08-20T10:09:47;5.90;;;3.50;;
75488;SDS011;64069;46.396;48.102;2023-08-20T10:12:23;11.23;;;3.45;;
75488;SDS011;64069;46.396;48.102;2023-08-20T10:14:50;11.98;;;3.30;;
75488;SDS011;64069;46.396;48.102;2023-08-20T10:17:23;5.40;;;2.97;;
75488;SDS011;64069;46.396;48.102;2023-08-20T10:20:00;8.50;;;3.28;;
75488;SDS011;64069;46.396;48.102;2023-08-20T10:25:12;7.93;;;3.40;;
75488;SDS011;64069;46.396;48.102;2023-08-20T10:31:04;9.80;;;3.15;;
75488;SDS011;64069;46.396;48.102;2023-08-20T10:36:20;6.78;;;3.22;;
75488;SDS011;64069;46.396;48.102;2023-08-20T10:38:50;7.97;;;2.83;;
75488;SDS011;64069;46.396;48.102;2023-08-20T10:41:25;5.43;;;3.15;;
75488;SDS011;64069;46.396;48.102;2023-08-20T10:43:59;5.22;;;3.08;;
75488;SDS011;64069;46.396;48.102;2023-08-20T10:46:26;6.10;;;3.00;;
75488;SDS011;64069;46.396;48.102;2023-08-20T10:49:03;8.00;;;3.05;;
75488;SDS011;64069;46.396;48.102;2023-08-20T10:51:37;4.30;;;2.85;;
75488;SDS011;64069;46.396;48.102;2023-08-20T10:56:41;5.75;;;3.13;;
75488;SDS011;64069;46.396;48.102;2023-08-20T11:01:46;6.65;;;2.97;;
75488;SDS011;64069;46.396;48.102;2023-08-20T11:04:21;4.70;;;2.60;;
75488;SDS011;64069;46.396;48.102;2023-08-20T11:07:07;5.43;;;2.97;;
75488;SDS011;64069;46.396;48.102;2023-08-20T11:09:47;4.97;;;2.97;;
75488;SDS011;64069;46.396;48.102;2023-08-20T11:12:21;7.85;;;3.28;;
75488;SDS011;64069;46.396;48.102;2023-08-20T11:14:47;11.88;;;3.45;;
75488;SDS011;64069;46.396;48.102;2023-08-20T11:17:20;6.05;;;3.05;;
75488;SDS011;64069;46.396;48.102;2023-08-20T11:19:59;7.72;;;2.88;;
75488;SDS011;64069;46.396;48.102;2023-08-20T11:22:40;5.85;;;2.88;;
75488;SDS011;64069;46.396;48.102;2023-08-20T11:25:13;4.28;;;2.78;;
75488;SDS011;64069;46.396;48.102;2023-08-20T11:27:46;4.70;;;2.60;;
75488;SDS011;64069;46.396;48.102;2023-08-20T11:30:13;7.43;;;2.80;;
75488;SDS011;64069;46.396;48.102;2023-08-20T11:32:46;3.92;;;2.67;;
75488;SDS011;64069;46.396;48.102;2023-08-20T11:35:20;6.22;;;3.38;;
75488;SDS011;64069;46.396;48.102;2023-08-20T11:37:46;5.38;;;2.97;;
75488;SDS011;64069;46.396;48.102;2023-08-20T11:40:22;6.00;;;3.20;;
75488;SDS011;64069;46.396;48.102;2023-08-20T11:42:55;6.30;;;2.95;;
75488;SDS011;64069;46.396;48.102;2023-08-20T11:45:27;7.00;;;2.78;;
75488;SDS011;64069;46.396;48.102;2023-08-20T11:47:55;6.70;;;2.83;;
75488;SDS011;64069;46.396;48.102;2023-08-20T11:50:31;12.93;;;3.38;;
75488;SDS011;64069;46.396;48.102;2023-08-20T11:53:03;5.85;;;3.00;;
75488;SDS011;64069;46.396;48.102;2023-08-20T11:55:29;7.43;;;2.80;;
75488;SDS011;64069;46.396;48.102;2023-08-20T11:58:02;4.50;;;2.63;;
75488;SDS011;64069;46.396;48.102;2023-08-20T12:00:35;4.57;;;3.15;;
75488;SDS011;64069;46.396;48.102;2023-08-20T12:03:08;8.18;;;3.22;;
75488;SDS011;64069;46.396;48.102;2023-08-20T12:05:35;4.65;;;2.85;;
75488;SDS011;64069;46.396;48.102;2023-08-20T12:08:07;6.50;;;2.85;;
75488;SDS011;64069;46.396;48.102;2023-08-20T12:10:41;4.22;;;3.20;;
75488;SDS011;64069;46.396;48.102;2023-08-20T12:13:14;6.05;;;2.60;;
75488;SDS011;64069;46.396;48.102;2023-08-20T12:15:40;4.35;;;2.60;;
75488;SDS011;64069;46.396;48.102;2023-08-20T12:18:12;4.05;;;2.60;;
75488;SDS011;64069;46.396;48.102;2023-08-20T12:20:38;7.57;;;2.75;;
75488;SDS011;64069;46.396;48.102;2023-08-20T12:23:11;6.95;;;3.28;;
75488;SDS011;64069;46.396;48.102;2023-08-20T12:25:49;5.68;;;2.80;;
75488;SDS011;64069;46.396;48.102;2023-08-20T12:28:23;7.15;;;2.85;;
75488;SDS011;64069;46.396;48.102;2023-08-20T12:30:51;8.38;;;2.80;;
75488;SDS011;64069;46.396;48.102;2023-08-20T12:33:24;4.68;;;3.05;;
75488;SDS011;64069;46.396;48.102;2023-08-20T12:35:56;9.20;;;2.60;;
75488;SDS011;64069;46.396;48.102;2023-08-20T12:38:23;7.88;;;2.75;;
75488;SDS011;64069;46.396;48.102;2023-08-20T12:40:56;5.78;;;2.90;;
75488;SDS011;64069;46.396;48.102;2023-08-20T12:43:22;7.53;;;2.63;;
75488;SDS011;64069;46.396;48.102;2023-08-20T12:45:54;6.95;;;2.75;;
75488;SDS011;64069;46.396;48.102;2023-08-20T12:48:26;4.85;;;2.85;;
75488;SDS011;64069;46.396;48.102;2023-08-20T12:50:58;9.43;;;2.55;;
75488;SDS011;64069;46.396;48.102;2023-08-20T12:53:31;8.25;;;2.50;;
75488;SDS011;64069;46.396;48.102;2023-08-20T12:55:57;4.32;;;2.53;;
75488;SDS011;64069;46.396;48.102;2023-08-20T12:58:30;6.47;;;3.42;;
75488;SDS011;64069;46.396;48.102;2023-08-20T13:01:02;8.63;;;2.60;;
75488;SDS011;64069;46.396;48.102;2023-08-20T13:03:29;7.63;;;3.00;;
75488;SDS011;64069;46.396;48.102;2023-08-20T13:06:01;8.10;;;3.22;;
75488;SDS011;64069;46.396;48.102;2023-08-20T13:08:34;7.38;;;2.80;;
75488;SDS011;64069;46.396;48.102;2023-08-20T13:11:07;4.88;;;2.72;;
75488;SDS011;64069;46.396;48.102;2023-08-20T13:13:42;7.93;;;3.00;;
75488;SDS011;64069;46.396;48.102;2023-08-20T13:16:09;9.23;;;3.13;;
75488;SDS011;64069;46.396;48.102;2023-08-20T13:18:41;9.00;;;3.10;;
75488;SDS011;64069;46.396;48.102;2023-08-20T13:21:21;6.30;;;3.13;;
75488;SDS011;64069;46.396;48.102;2023-08-20T13:23:53;12.13;;;3.30;;
75488;SDS011;64069;46.396;48.102;2023-08-20T13:26:26;8.40;;;3.67;;
75488;SDS011;64069;46.396;48.102;2023-08-20T13:28:52;7.68;;;3.38;;
75488;SDS011;64069;46.396;48.102;2023-08-20T13:31:25;5.57;;;3.00;;
75488;SDS011;64069;46.396;48.102;2023-08-20T13:33:58;10.50;;;3.30;;
75488;SDS011;64069;46.396;48.102;2023-08-20T13:36:24;8.23;;;2.92;;
75488;SDS011;64069;46.396;48.102;2023-08-20T13:38:56;25.55;;;4.00;;
75488;SDS011;64069;46.396;48.102;2023-08-20T13:41:22;6.80;;;2.90;;
75488;SDS011;64069;46.396;48.102;2023-08-20T13:43:54;5.60;;;2.83;;
75488;SDS011;64069;46.396;48.102;2023-08-20T13:46:26;6.63;;;2.85;;
75488;SDS011;64069;46.396;48.102;2023-08-20T13:48:53;5.63;;;3.47;;
75488;SDS011;64069;46.396;48.102;2023-08-20T13:51:26;8.68;;;3.28;;
75488;SDS011;64069;46.396;48.102;2023-08-20T13:53:58;4.40;;;2.65;;
75488;SDS011;64069;46.396;48.102;2023-08-20T13:56:24;10.18;;;2.92;;
75488;SDS011;64069;46.396;48.102;2023-08-20T13:58:57;6.03;;;3.13;;
75488;SDS011;64069;46.396;48.102;2023-08-20T14:01:30;10.57;;;2.92;;
75488;SDS011;64069;46.396;48.102;2023-08-20T14:03:55;5.28;;;2.78;;
75488;SDS011;64069;46.396;48.102;2023-08-20T14:06:28;5.45;;;2.35;;
75488;SDS011;64069;46.396;48.102;2023-08-20T14:09:01;5.45;;;2.80;;
75488;SDS011;64069;46.396;48.102;2023-08-20T14:11:36;7.75;;;2.70;;
75488;SDS011;64069;46.396;48.102;2023-08-20T14:14:09;5.80;;;2.85;;
75488;SDS011;64069;46.396;48.102;2023-08-20T14:16:35;15.98;;;3.33;;
75488;SDS011;64069;46.396;48.102;2023-08-20T14:19:07;14.15;;;3.97;;
75488;SDS011;64069;46.396;48.102;2023-08-20T14:21:39;21.85;;;4.40;;
75488;SDS011;64069;46.396;48.102;2023-08-20T14:24:18;12.93;;;3.40;;
75488;SDS011;64069;46.396;48.102;2023-08-20T14:26:51;27.00;;;3.83;;
75488;SDS011;64069;46.396;48.102;2023-08-20T14:29:17;14.18;;;3.40;;
75488;SDS011;64069;46.396;48.102;2023-08-20T14:31:49;14.02;;;3.20;;
75488;SDS011;64069;46.396;48.102;2023-08-20T14:34:21;15.80;;;3.65;;
75488;SDS011;64069;46.396;48.102;2023-08-20T14:36:47;14.98;;;3.55;;
75488;SDS011;64069;46.396;48.102;2023-08-20T14:39:19;35.65;;;4.82;;
75488;SDS011;64069;46.396;48.102;2023-08-20T14:41:51;10.40;;;3.80;;
75488;SDS011;64069;46.396;48.102;2023-08-20T14:44:17;13.82;;;3.47;;
75488;SDS011;64069;46.396;48.102;2023-08-20T14:46:49;16.67;;;3.60;;
75488;SDS011;64069;46.396;48.102;2023-08-20T14:49:21;27.60;;;4.93;;
75488;SDS011;64069;46.396;48.102;2023-08-20T14:51:54;33.22;;;6.07;;
75488;SDS011;64069;46.396;48.102;2023-08-20T14:54:20;45.22;;;7.68;;
75488;SDS011;64069;46.396;48.102;2023-08-20T14:56:52;30.33;;;9.63;;
75488;SDS011;64069;46.396;48.102;2023-08-20T14:59:24;23.30;;;10.60;;
75488;SDS011;64069;46.396;48.102;2023-08-20T15:01:51;38.67;;;12.65;;
75488;SDS011;64069;46.396;48.102;2023-08-20T15:04:23;33.92;;;11.68;;
75488;SDS011;64069;46.396;48.102;2023-08-20T15:06:49;44.00;;;15.43;;
75488;SDS011;64069;46.396;48.102;2023-08-20T15:09:21;44.30;;;17.55;;
75488;SDS011;64069;46.396;48.102;2023-08-20T15:11:55;34.95;;;15.52;;
75488;SDS011;64069;46.396;48.102;2023-08-20T15:14:21;36.58;;;15.20;;
75488;SDS011;64069;46.396;48.102;2023-08-20T15:16:54;39.78;;;19.25;;
75488;SDS011;64069;46.396;48.102;2023-08-20T15:19:34;51.13;;;21.45;;